sensor_id;sensor_type;location;lat;lon;timestamp;temperature;humidity
9103;DHT22;4587;51.434;6.788;2023-05-21T00:00:14;14.90;99.90
9103;DHT22;4587;51.434;6.788;2023-05-21T00:02:40;14.90;99.90
9103;DHT22;4587;51.434;6.788;2023-05-21T00:05:06;15.00;99.90
9103;DHT22;4587;51.434;6.788;2023-05-21T00:07:36;15.00;99.90
9103;DHT22;4587;51.434;6.788;2023-05-21T00:10:01;14.90;99.90
9103;DHT22;4587;51.434;6.788;2023-05-21T00:12:27;14.90;99.90
9103;DHT22;4587;51.434;6.788;2023-05-21T00:14:52;14.90;99.90
9103;DHT22;4587;51.434;6.788;2023-05-21T00:17:18;14.90;99.90
9103;DHT22;4587;51.434;6.788;2023-05-21T00:19:44;14.90;99.90
9103;DHT22;4587;51.434;6.788;2023-05-21T00:22:09;14.90;99.90
9103;DHT22;4587;51.434;6.788;2023-05-21T00:24:35;14.90;99.90
9103;DHT22;4587;51.434;6.788;2023-05-21T00:27:00;14.80;99.90
9103;DHT22;4587;51.434;6.788;2023-05-21T00:29:26;14.80;99.90
9103;DHT22;4587;51.434;6.788;2023-05-21T00:31:52;14.80;99.90
9103;DHT22;4587;51.434;6.788;2023-05-21T00:34:18;14.80;99.90
9103;DHT22;4587;51.434;6.788;2023-05-21T00:36:44;14.80;99.90
9103;DHT22;4587;51.434;6.788;2023-05-21T00:39:11;14.80;99.90
9103;DHT22;4587;51.434;6.788;2023-05-21T00:41:36;14.80;99.90
9103;DHT22;4587;51.434;6.788;2023-05-21T00:44:07;14.80;99.90
9103;DHT22;4587;51.434;6.788;2023-05-21T00:46:33;14.90;99.90
9103;DHT22;4587;51.434;6.788;2023-05-21T00:48:59;14.80;99.90
9103;DHT22;4587;51.434;6.788;2023-05-21T00:51:25;14.80;99.90
9103;DHT22;4587;51.434;6.788;2023-05-21T00:53:55;14.80;99.90
9103;DHT22;4587;51.434;6.788;2023-05-21T00:56:22;14.80;99.90
9103;DHT22;4587;51.434;6.788;2023-05-21T00:58:49;14.80;99.90
9103;DHT22;4587;51.434;6.788;2023-05-21T01:01:16;14.80;99.90
9103;DHT22;4587;51.434;6.788;2023-05-21T01:03:42;14.80;99.90
9103;DHT22;4587;51.434;6.788;2023-05-21T01:06:10;14.80;99.90
9103;DHT22;4587;51.434;6.788;2023-05-21T01:08:39;14.80;99.90
9103;DHT22;4587;51.434;6.788;2023-05-21T01:11:07;14.80;99.90
9103;DHT22;4587;51.434;6.788;2023-05-21T01:13:36;14.80;99.90
9103;DHT22;4587;51.434;6.788;2023-05-21T01:16:03;14.80;99.90
9103;DHT22;4587;51.434;6.788;2023-05-21T01:18:31;14.70;99.90
9103;DHT22;4587;51.434;6.788;2023-05-21T01:21:02;14.80;99.90
9103;DHT22;4587;51.434;6.788;2023-05-21T01:23:28;14.80;99.90
9103;DHT22;4587;51.434;6.788;2023-05-21T01:25:54;14.90;99.90
9103;DHT22;4587;51.434;6.788;2023-05-21T01:28:20;14.80;99.90
9103;DHT22;4587;51.434;6.788;2023-05-21T01:30:46;14.90;99.90
9103;DHT22;4587;51.434;6.788;2023-05-21T01:33:35;14.90;99.90
9103;DHT22;4587;51.434;6.788;2023-05-21T01:36:10;14.80;99.90
9103;DHT22;4587;51.434;6.788;2023-05-21T01:39:00;14.80;99.90
9103;DHT22;4587;51.434;6.788;2023-05-21T01:41:32;14.80;99.90
9103;DHT22;4587;51.434;6.788;2023-05-21T01:43:57;14.70;99.90
9103;DHT22;4587;51.434;6.788;2023-05-21T01:46:26;14.70;99.90
9103;DHT22;4587;51.434;6.788;2023-05-21T01:48:52;14.70;99.90
9103;DHT22;4587;51.434;6.788;2023-05-21T01:51:19;14.70;99.90
9103;DHT22;4587;51.434;6.788;2023-05-21T01:53:46;14.60;99.90
9103;DHT22;4587;51.434;6.788;2023-05-21T01:56:11;14.80;99.90
9103;DHT22;4587;51.434;6.788;2023-05-21T01:58:37;14.70;99.90
9103;DHT22;4587;51.434;6.788;2023-05-21T02:01:02;14.60;99.90
9103;DHT22;4587;51.434;6.788;2023-05-21T02:03:29;14.80;99.90
9103;DHT22;4587;51.434;6.788;2023-05-21T02:05:55;14.80;99.90
9103;DHT22;4587;51.434;6.788;2023-05-21T02:08:21;14.70;99.90
9103;DHT22;4587;51.434;6.788;2023-05-21T02:10:48;14.60;99.90
9103;DHT22;4587;51.434;6.788;2023-05-21T02:13:13;14.70;99.90
9103;DHT22;4587;51.434;6.788;2023-05-21T02:15:39;14.60;99.90
9103;DHT22;4587;51.434;6.788;2023-05-21T02:18:04;14.70;99.90
9103;DHT22;4587;51.434;6.788;2023-05-21T02:20:30;14.70;99.90
9103;DHT22;4587;51.434;6.788;2023-05-21T02:22:56;14.50;99.90
9103;DHT22;4587;51.434;6.788;2023-05-21T02:25:22;14.60;99.90
9103;DHT22;4587;51.434;6.788;2023-05-21T02:27:47;14.50;99.90
9103;DHT22;4587;51.434;6.788;2023-05-21T02:30:18;14.50;99.90
9103;DHT22;4587;51.434;6.788;2023-05-21T02:32:44;14.50;99.90
9103;DHT22;4587;51.434;6.788;2023-05-21T02:35:11;14.60;99.90
9103;DHT22;4587;51.434;6.788;2023-05-21T02:37:37;14.60;99.90
9103;DHT22;4587;51.434;6.788;2023-05-21T02:40:05;14.60;99.90
9103;DHT22;4587;51.434;6.788;2023-05-21T02:42:32;14.60;99.90
9103;DHT22;4587;51.434;6.788;2023-05-21T02:44:58;14.60;99.90
9103;DHT22;4587;51.434;6.788;2023-05-21T02:47:23;14.50;99.90
9103;DHT22;4587;51.434;6.788;2023-05-21T02:49:50;14.40;99.90
9103;DHT22;4587;51.434;6.788;2023-05-21T02:52:18;14.50;99.90
9103;DHT22;4587;51.434;6.788;2023-05-21T02:54:44;14.60;99.90
9103;DHT22;4587;51.434;6.788;2023-05-21T02:57:09;14.60;99.90
9103;DHT22;4587;51.434;6.788;2023-05-21T02:59:35;14.60;99.90
9103;DHT22;4587;51.434;6.788;2023-05-21T03:02:01;14.50;99.90
9103;DHT22;4587;51.434;6.788;2023-05-21T03:04:26;14.70;99.90
9103;DHT22;4587;51.434;6.788;2023-05-21T03:06:53;14.50;99.90
9103;DHT22;4587;51.434;6.788;2023-05-21T03:09:22;14.50;99.90
9103;DHT22;4587;51.434;6.788;2023-05-21T03:11:51;14.40;99.90
9103;DHT22;4587;51.434;6.788;2023-05-21T03:14:16;14.40;99.90
9103;DHT22;4587;51.434;6.788;2023-05-21T03:16:42;14.60;99.90
9103;DHT22;4587;51.434;6.788;2023-05-21T03:19:11;14.40;99.90
9103;DHT22;4587;51.434;6.788;2023-05-21T03:21:37;14.40;99.90
9103;DHT22;4587;51.434;6.788;2023-05-21T03:24:06;14.40;99.90
9103;DHT22;4587;51.434;6.788;2023-05-21T03:26:31;14.30;99.90
9103;DHT22;4587;51.434;6.788;2023-05-21T03:28:57;14.30;99.90
9103;DHT22;4587;51.434;6.788;2023-05-21T03:31:24;14.30;99.90
9103;DHT22;4587;51.434;6.788;2023-05-21T03:33:50;14.30;99.90
9103;DHT22;4587;51.434;6.788;2023-05-21T03:36:17;14.40;99.90
9103;DHT22;4587;51.434;6.788;2023-05-21T03:38:42;14.60;99.90
9103;DHT22;4587;51.434;6.788;2023-05-21T03:41:09;14.30;99.90
9103;DHT22;4587;51.434;6.788;2023-05-21T03:43:35;14.30;99.90
9103;DHT22;4587;51.434;6.788;2023-05-21T03:46:00;14.40;99.90
9103;DHT22;4587;51.434;6.788;2023-05-21T03:48:26;14.30;99.90
9103;DHT22;4587;51.434;6.788;2023-05-21T03:50:51;14.10;99.90
9103;DHT22;4587;51.434;6.788;2023-05-21T03:53:17;14.30;99.90
9103;DHT22;4587;51.434;6.788;2023-05-21T03:55:42;14.40;99.90
9103;DHT22;4587;51.434;6.788;2023-05-21T03:58:08;14.30;99.90
9103;DHT22;4587;51.434;6.788;2023-05-21T04:00:38;14.30;99.90
9103;DHT22;4587;51.434;6.788;2023-05-21T04:03:03;14.50;99.90
9103;DHT22;4587;51.434;6.788;2023-05-21T04:05:29;14.30;99.90
9103;DHT22;4587;51.434;6.788;2023-05-21T04:07:54;14.10;99.90
9103;DHT22;4587;51.434;6.788;2023-05-21T04:10:20;14.30;99.90
9103;DHT22;4587;51.434;6.788;2023-05-21T04:12:47;14.30;99.90
9103;DHT22;4587;51.434;6.788;2023-05-21T04:15:17;14.30;99.90
9103;DHT22;4587;51.434;6.788;2023-05-21T04:17:43;14.50;99.90
9103;DHT22;4587;51.434;6.788;2023-05-21T04:20:10;14.50;99.90
9103;DHT22;4587;51.434;6.788;2023-05-21T04:22:36;14.00;99.90
9103;DHT22;4587;51.434;6.788;2023-05-21T04:25:02;14.30;99.90
9103;DHT22;4587;51.434;6.788;2023-05-21T04:27:27;14.30;99.90
9103;DHT22;4587;51.434;6.788;2023-05-21T04:29:53;14.30;99.90
9103;DHT22;4587;51.434;6.788;2023-05-21T04:32:19;14.60;99.90
9103;DHT22;4587;51.434;6.788;2023-05-21T04:34:45;14.30;99.90
9103;DHT22;4587;51.434;6.788;2023-05-21T04:37:10;14.40;99.90
9103;DHT22;4587;51.434;6.788;2023-05-21T04:39:36;14.40;99.90
9103;DHT22;4587;51.434;6.788;2023-05-21T04:42:02;14.30;99.90
9103;DHT22;4587;51.434;6.788;2023-05-21T04:44:28;14.40;99.90
9103;DHT22;4587;51.434;6.788;2023-05-21T04:46:54;14.20;99.90
9103;DHT22;4587;51.434;6.788;2023-05-21T04:49:21;14.30;99.90
9103;DHT22;4587;51.434;6.788;2023-05-21T04:51:47;14.40;99.90
9103;DHT22;4587;51.434;6.788;2023-05-21T04:54:13;14.30;99.90
9103;DHT22;4587;51.434;6.788;2023-05-21T04:56:39;14.40;99.90
9103;DHT22;4587;51.434;6.788;2023-05-21T04:59:05;14.40;99.90
9103;DHT22;4587;51.434;6.788;2023-05-21T05:01:32;14.40;99.90
9103;DHT22;4587;51.434;6.788;2023-05-21T05:03:59;14.40;99.90
9103;DHT22;4587;51.434;6.788;2023-05-21T05:06:25;14.60;99.90
9103;DHT22;4587;51.434;6.788;2023-05-21T05:08:51;14.30;99.90
9103;DHT22;4587;51.434;6.788;2023-05-21T05:11:16;14.40;99.90
9103;DHT22;4587;51.434;6.788;2023-05-21T05:13:42;14.30;99.90
9103;DHT22;4587;51.434;6.788;2023-05-21T05:16:07;14.40;99.90
9103;DHT22;4587;51.434;6.788;2023-05-21T05:18:34;14.50;99.90
9103;DHT22;4587;51.434;6.788;2023-05-21T05:21:00;14.60;99.90
9103;DHT22;4587;51.434;6.788;2023-05-21T05:23:25;14.60;99.90
9103;DHT22;4587;51.434;6.788;2023-05-21T05:25:51;14.50;99.90
9103;DHT22;4587;51.434;6.788;2023-05-21T05:28:17;14.50;99.90
9103;DHT22;4587;51.434;6.788;2023-05-21T05:30:42;14.50;99.90
9103;DHT22;4587;51.434;6.788;2023-05-21T05:33:08;14.70;99.90
9103;DHT22;4587;51.434;6.788;2023-05-21T05:35:34;14.70;99.90
9103;DHT22;4587;51.434;6.788;2023-05-21T05:37:59;14.70;99.90
9103;DHT22;4587;51.434;6.788;2023-05-21T05:40:25;14.90;99.90
9103;DHT22;4587;51.434;6.788;2023-05-21T05:42:50;14.80;99.90
9103;DHT22;4587;51.434;6.788;2023-05-21T05:45:17;14.90;99.90
9103;DHT22;4587;51.434;6.788;2023-05-21T05:47:43;14.90;99.90
9103;DHT22;4587;51.434;6.788;2023-05-21T05:50:11;15.10;99.90
9103;DHT22;4587;51.434;6.788;2023-05-21T05:52:37;14.90;99.90
9103;DHT22;4587;51.434;6.788;2023-05-21T05:55:06;15.40;99.90
9103;DHT22;4587;51.434;6.788;2023-05-21T05:57:33;15.20;99.90
9103;DHT22;4587;51.434;6.788;2023-05-21T05:59:58;15.30;99.90
9103;DHT22;4587;51.434;6.788;2023-05-21T06:02:24;15.60;99.90
9103;DHT22;4587;51.434;6.788;2023-05-21T06:04:50;15.50;99.90
9103;DHT22;4587;51.434;6.788;2023-05-21T06:07:16;15.30;99.90
9103;DHT22;4587;51.434;6.788;2023-05-21T06:09:41;15.50;99.90
9103;DHT22;4587;51.434;6.788;2023-05-21T06:12:07;15.50;99.90
9103;DHT22;4587;51.434;6.788;2023-05-21T06:14:32;15.60;99.90
9103;DHT22;4587;51.434;6.788;2023-05-21T06:16:58;15.60;99.90
9103;DHT22;4587;51.434;6.788;2023-05-21T06:19:23;15.70;99.90
9103;DHT22;4587;51.434;6.788;2023-05-21T06:21:49;15.80;99.90
9103;DHT22;4587;51.434;6.788;2023-05-21T06:24:15;15.80;99.90
9103;DHT22;4587;51.434;6.788;2023-05-21T06:26:40;15.80;99.90
9103;DHT22;4587;51.434;6.788;2023-05-21T06:29:06;15.90;99.90
9103;DHT22;4587;51.434;6.788;2023-05-21T06:31:32;15.90;99.90
9103;DHT22;4587;51.434;6.788;2023-05-21T06:33:58;16.10;99.90
9103;DHT22;4587;51.434;6.788;2023-05-21T06:36:25;16.10;99.90
9103;DHT22;4587;51.434;6.788;2023-05-21T06:38:54;16.60;99.90
9103;DHT22;4587;51.434;6.788;2023-05-21T06:41:21;17.40;99.90
9103;DHT22;4587;51.434;6.788;2023-05-21T06:43:46;17.80;99.90
9103;DHT22;4587;51.434;6.788;2023-05-21T06:46:12;18.10;99.90
9103;DHT22;4587;51.434;6.788;2023-05-21T06:48:38;18.20;99.90
9103;DHT22;4587;51.434;6.788;2023-05-21T06:51:03;18.30;99.90
9103;DHT22;4587;51.434;6.788;2023-05-21T06:53:29;18.30;99.90
9103;DHT22;4587;51.434;6.788;2023-05-21T06:55:54;18.80;99.90
9103;DHT22;4587;51.434;6.788;2023-05-21T06:58:20;18.60;99.90
9103;DHT22;4587;51.434;6.788;2023-05-21T07:00:46;18.70;99.90
9103;DHT22;4587;51.434;6.788;2023-05-21T07:03:12;18.90;99.90
9103;DHT22;4587;51.434;6.788;2023-05-21T07:05:38;18.90;99.90
9103;DHT22;4587;51.434;6.788;2023-05-21T07:08:03;18.90;99.90
9103;DHT22;4587;51.434;6.788;2023-05-21T07:10:29;19.40;99.90
9103;DHT22;4587;51.434;6.788;2023-05-21T07:12:55;19.30;99.90
9103;DHT22;4587;51.434;6.788;2023-05-21T07:15:20;19.80;99.90
9103;DHT22;4587;51.434;6.788;2023-05-21T07:17:46;20.40;99.90
9103;DHT22;4587;51.434;6.788;2023-05-21T07:20:12;21.00;99.90
9103;DHT22;4587;51.434;6.788;2023-05-21T07:22:38;21.60;99.90
9103;DHT22;4587;51.434;6.788;2023-05-21T07:25:04;22.10;99.90
9103;DHT22;4587;51.434;6.788;2023-05-21T07:27:30;22.60;99.90
9103;DHT22;4587;51.434;6.788;2023-05-21T07:29:56;22.50;99.90
9103;DHT22;4587;51.434;6.788;2023-05-21T07:32:22;22.60;99.90
9103;DHT22;4587;51.434;6.788;2023-05-21T07:34:47;22.80;99.90
9103;DHT22;4587;51.434;6.788;2023-05-21T07:37:13;23.20;99.90
9103;DHT22;4587;51.434;6.788;2023-05-21T07:39:39;23.70;99.90
9103;DHT22;4587;51.434;6.788;2023-05-21T07:42:04;24.20;99.90
9103;DHT22;4587;51.434;6.788;2023-05-21T07:44:30;24.60;99.90
9103;DHT22;4587;51.434;6.788;2023-05-21T07:46:56;24.90;99.90
9103;DHT22;4587;51.434;6.788;2023-05-21T07:49:22;25.10;99.90
9103;DHT22;4587;51.434;6.788;2023-05-21T07:51:48;25.20;99.90
9103;DHT22;4587;51.434;6.788;2023-05-21T07:54:13;25.40;99.90
9103;DHT22;4587;51.434;6.788;2023-05-21T07:56:39;25.70;99.90
9103;DHT22;4587;51.434;6.788;2023-05-21T07:59:04;25.40;99.90
9103;DHT22;4587;51.434;6.788;2023-05-21T08:01:30;24.40;99.90
9103;DHT22;4587;51.434;6.788;2023-05-21T08:03:58;24.20;99.90
9103;DHT22;4587;51.434;6.788;2023-05-21T08:06:26;24.10;99.90
9103;DHT22;4587;51.434;6.788;2023-05-21T08:08:51;23.90;99.90
9103;DHT22;4587;51.434;6.788;2023-05-21T08:11:18;23.40;99.90
9103;DHT22;4587;51.434;6.788;2023-05-21T08:13:44;23.00;99.90
9103;DHT22;4587;51.434;6.788;2023-05-21T08:16:10;22.70;99.90
9103;DHT22;4587;51.434;6.788;2023-05-21T08:18:36;22.50;99.90
9103;DHT22;4587;51.434;6.788;2023-05-21T08:21:01;21.70;99.90
9103;DHT22;4587;51.434;6.788;2023-05-21T08:23:27;22.00;99.90
9103;DHT22;4587;51.434;6.788;2023-05-21T08:25:53;22.00;99.90
9103;DHT22;4587;51.434;6.788;2023-05-21T08:28:21;21.50;99.90
9103;DHT22;4587;51.434;6.788;2023-05-21T08:30:47;21.60;99.90
9103;DHT22;4587;51.434;6.788;2023-05-21T08:33:13;21.50;99.90
9103;DHT22;4587;51.434;6.788;2023-05-21T08:35:39;21.40;99.90
9103;DHT22;4587;51.434;6.788;2023-05-21T08:38:04;21.50;99.90
9103;DHT22;4587;51.434;6.788;2023-05-21T08:40:31;21.50;99.90
9103;DHT22;4587;51.434;6.788;2023-05-21T08:42:57;21.80;99.90
9103;DHT22;4587;51.434;6.788;2023-05-21T08:45:23;21.80;99.90
9103;DHT22;4587;51.434;6.788;2023-05-21T08:47:54;22.00;99.90
9103;DHT22;4587;51.434;6.788;2023-05-21T08:50:25;21.90;99.90
9103;DHT22;4587;51.434;6.788;2023-05-21T08:52:51;22.00;99.90
9103;DHT22;4587;51.434;6.788;2023-05-21T08:55:17;21.90;99.90
9103;DHT22;4587;51.434;6.788;2023-05-21T08:57:43;22.00;99.90
9103;DHT22;4587;51.434;6.788;2023-05-21T09:00:10;22.20;99.90
9103;DHT22;4587;51.434;6.788;2023-05-21T09:02:37;22.50;99.90
9103;DHT22;4587;51.434;6.788;2023-05-21T09:05:05;22.90;99.90
9103;DHT22;4587;51.434;6.788;2023-05-21T09:07:38;22.40;99.90
9103;DHT22;4587;51.434;6.788;2023-05-21T09:10:06;23.00;99.90
9103;DHT22;4587;51.434;6.788;2023-05-21T09:12:34;23.20;99.90
9103;DHT22;4587;51.434;6.788;2023-05-21T09:15:00;23.80;99.90
9103;DHT22;4587;51.434;6.788;2023-05-21T09:17:26;23.20;99.90
9103;DHT22;4587;51.434;6.788;2023-05-21T09:20:08;23.20;99.90
9103;DHT22;4587;51.434;6.788;2023-05-21T09:22:50;23.10;99.90
9103;DHT22;4587;51.434;6.788;2023-05-21T09:25:20;23.10;99.90
9103;DHT22;4587;51.434;6.788;2023-05-21T09:27:46;23.00;99.90
9103;DHT22;4587;51.434;6.788;2023-05-21T09:30:14;22.90;99.90
9103;DHT22;4587;51.434;6.788;2023-05-21T09:32:40;22.80;99.90
9103;DHT22;4587;51.434;6.788;2023-05-21T09:35:12;22.80;99.90
9103;DHT22;4587;51.434;6.788;2023-05-21T09:37:42;23.20;99.90
9103;DHT22;4587;51.434;6.788;2023-05-21T09:40:10;22.70;99.90
9103;DHT22;4587;51.434;6.788;2023-05-21T09:42:42;22.70;99.90
9103;DHT22;4587;51.434;6.788;2023-05-21T09:45:08;22.80;99.90
9103;DHT22;4587;51.434;6.788;2023-05-21T09:47:43;22.70;99.90
9103;DHT22;4587;51.434;6.788;2023-05-21T09:50:12;22.60;99.90
9103;DHT22;4587;51.434;6.788;2023-05-21T09:52:38;22.50;99.90
9103;DHT22;4587;51.434;6.788;2023-05-21T09:55:11;22.40;99.90
9103;DHT22;4587;51.434;6.788;2023-05-21T09:57:47;22.70;99.90
9103;DHT22;4587;51.434;6.788;2023-05-21T10:00:29;22.60;99.90
9103;DHT22;4587;51.434;6.788;2023-05-21T10:02:59;22.80;99.90
9103;DHT22;4587;51.434;6.788;2023-05-21T10:05:29;22.80;99.90
9103;DHT22;4587;51.434;6.788;2023-05-21T10:07:59;23.10;99.90
9103;DHT22;4587;51.434;6.788;2023-05-21T10:10:27;23.30;99.90
9103;DHT22;4587;51.434;6.788;2023-05-21T10:13:13;23.30;99.90
9103;DHT22;4587;51.434;6.788;2023-05-21T10:15:52;23.60;99.90
9103;DHT22;4587;51.434;6.788;2023-05-21T10:18:21;23.60;99.90
9103;DHT22;4587;51.434;6.788;2023-05-21T10:20:48;23.80;99.90
9103;DHT22;4587;51.434;6.788;2023-05-21T10:23:13;23.70;99.90
9103;DHT22;4587;51.434;6.788;2023-05-21T10:25:40;23.60;99.90
9103;DHT22;4587;51.434;6.788;2023-05-21T10:28:06;23.60;99.90
9103;DHT22;4587;51.434;6.788;2023-05-21T10:30:32;23.70;99.90
9103;DHT22;4587;51.434;6.788;2023-05-21T10:33:00;23.60;99.90
9103;DHT22;4587;51.434;6.788;2023-05-21T10:35:27;24.00;99.90
9103;DHT22;4587;51.434;6.788;2023-05-21T10:37:56;23.70;99.90
9103;DHT22;4587;51.434;6.788;2023-05-21T10:40:21;23.10;99.90
9103;DHT22;4587;51.434;6.788;2023-05-21T10:45:52;23.60;99.90
9103;DHT22;4587;51.434;6.788;2023-05-21T10:48:57;23.50;99.90
9103;DHT22;4587;51.434;6.788;2023-05-21T10:56:59;23.50;99.90
9103;DHT22;4587;51.434;6.788;2023-05-21T10:59:39;23.40;99.90
9103;DHT22;4587;51.434;6.788;2023-05-21T11:02:06;23.40;99.90
9103;DHT22;4587;51.434;6.788;2023-05-21T11:04:32;23.30;99.90
9103;DHT22;4587;51.434;6.788;2023-05-21T11:06:59;23.30;99.90
9103;DHT22;4587;51.434;6.788;2023-05-21T11:09:25;23.40;99.90
9103;DHT22;4587;51.434;6.788;2023-05-21T11:11:52;23.40;99.90
9103;DHT22;4587;51.434;6.788;2023-05-21T11:16:50;23.40;99.90
9103;DHT22;4587;51.434;6.788;2023-05-21T11:19:16;23.40;99.90
9103;DHT22;4587;51.434;6.788;2023-05-21T11:21:42;23.30;99.90
9103;DHT22;4587;51.434;6.788;2023-05-21T11:24:08;23.20;99.90
9103;DHT22;4587;51.434;6.788;2023-05-21T11:29:17;23.20;99.90
9103;DHT22;4587;51.434;6.788;2023-05-21T11:31:45;23.40;99.90
9103;DHT22;4587;51.434;6.788;2023-05-21T11:34:12;23.60;99.90
9103;DHT22;4587;51.434;6.788;2023-05-21T11:36:44;23.60;99.90
9103;DHT22;4587;51.434;6.788;2023-05-21T11:39:14;23.70;99.90
9103;DHT22;4587;51.434;6.788;2023-05-21T11:44:18;23.80;99.90
9103;DHT22;4587;51.434;6.788;2023-05-21T11:46:47;23.90;99.90
9103;DHT22;4587;51.434;6.788;2023-05-21T11:49:14;24.30;99.90
9103;DHT22;4587;51.434;6.788;2023-05-21T11:51:40;24.10;99.90
9103;DHT22;4587;51.434;6.788;2023-05-21T11:54:09;24.10;99.90
9103;DHT22;4587;51.434;6.788;2023-05-21T11:56:37;24.00;99.90
9103;DHT22;4587;51.434;6.788;2023-05-21T11:59:15;24.30;99.90
9103;DHT22;4587;51.434;6.788;2023-05-21T12:01:41;23.90;99.90
9103;DHT22;4587;51.434;6.788;2023-05-21T12:04:07;23.90;99.90
9103;DHT22;4587;51.434;6.788;2023-05-21T12:06:33;23.90;99.90
9103;DHT22;4587;51.434;6.788;2023-05-21T12:08:58;24.00;99.90
9103;DHT22;4587;51.434;6.788;2023-05-21T12:11:24;24.00;99.90
9103;DHT22;4587;51.434;6.788;2023-05-21T12:13:51;23.70;99.90
9103;DHT22;4587;51.434;6.788;2023-05-21T12:16:17;24.20;99.90
9103;DHT22;4587;51.434;6.788;2023-05-21T12:18:43;24.20;99.90
9103;DHT22;4587;51.434;6.788;2023-05-21T12:21:09;24.20;99.90
9103;DHT22;4587;51.434;6.788;2023-05-21T12:23:35;24.20;99.90
9103;DHT22;4587;51.434;6.788;2023-05-21T12:26:00;24.20;99.90
9103;DHT22;4587;51.434;6.788;2023-05-21T12:28:28;24.30;99.90
9103;DHT22;4587;51.434;6.788;2023-05-21T12:30:54;24.20;99.90
9103;DHT22;4587;51.434;6.788;2023-05-21T12:33:19;24.20;99.90
9103;DHT22;4587;51.434;6.788;2023-05-21T12:35:45;24.00;99.90
9103;DHT22;4587;51.434;6.788;2023-05-21T12:38:14;24.00;99.90
9103;DHT22;4587;51.434;6.788;2023-05-21T12:40:39;24.10;99.90
9103;DHT22;4587;51.434;6.788;2023-05-21T12:43:07;24.10;99.90
9103;DHT22;4587;51.434;6.788;2023-05-21T12:45:32;24.10;99.90
9103;DHT22;4587;51.434;6.788;2023-05-21T12:48:02;24.20;99.90
9103;DHT22;4587;51.434;6.788;2023-05-21T12:50:27;24.20;99.90
9103;DHT22;4587;51.434;6.788;2023-05-21T12:52:53;24.60;99.90
9103;DHT22;4587;51.434;6.788;2023-05-21T12:55:22;24.40;99.90
9103;DHT22;4587;51.434;6.788;2023-05-21T12:57:47;24.40;99.90
9103;DHT22;4587;51.434;6.788;2023-05-21T13:00:13;24.30;99.90
9103;DHT22;4587;51.434;6.788;2023-05-21T13:02:42;24.20;99.90
9103;DHT22;4587;51.434;6.788;2023-05-21T13:05:10;24.50;99.90
9103;DHT22;4587;51.434;6.788;2023-05-21T13:07:37;24.20;99.90
9103;DHT22;4587;51.434;6.788;2023-05-21T13:10:04;24.50;99.90
9103;DHT22;4587;51.434;6.788;2023-05-21T13:12:31;24.60;99.90
9103;DHT22;4587;51.434;6.788;2023-05-21T13:14:59;24.60;99.90
9103;DHT22;4587;51.434;6.788;2023-05-21T13:17:26;24.80;99.90
9103;DHT22;4587;51.434;6.788;2023-05-21T13:20:07;24.90;99.90
9103;DHT22;4587;51.434;6.788;2023-05-21T13:22:35;25.00;99.90
9103;DHT22;4587;51.434;6.788;2023-05-21T13:25:04;25.10;99.90
9103;DHT22;4587;51.434;6.788;2023-05-21T13:27:30;25.10;99.90
9103;DHT22;4587;51.434;6.788;2023-05-21T13:29:56;25.30;99.90
9103;DHT22;4587;51.434;6.788;2023-05-21T13:32:22;25.20;99.90
9103;DHT22;4587;51.434;6.788;2023-05-21T13:34:47;25.10;99.90
9103;DHT22;4587;51.434;6.788;2023-05-21T13:37:13;25.20;99.90
9103;DHT22;4587;51.434;6.788;2023-05-21T13:39:39;24.60;99.90
9103;DHT22;4587;51.434;6.788;2023-05-21T13:42:05;25.10;99.90
9103;DHT22;4587;51.434;6.788;2023-05-21T13:44:31;25.30;99.90
9103;DHT22;4587;51.434;6.788;2023-05-21T13:47:01;25.20;99.90
9103;DHT22;4587;51.434;6.788;2023-05-21T13:49:26;25.20;99.90
9103;DHT22;4587;51.434;6.788;2023-05-21T13:51:52;25.10;99.90
9103;DHT22;4587;51.434;6.788;2023-05-21T13:54:18;25.00;99.90
9103;DHT22;4587;51.434;6.788;2023-05-21T13:56:43;24.80;99.90
9103;DHT22;4587;51.434;6.788;2023-05-21T13:59:09;24.70;99.90
9103;DHT22;4587;51.434;6.788;2023-05-21T14:01:34;24.70;99.90
9103;DHT22;4587;51.434;6.788;2023-05-21T14:04:00;24.80;99.90
9103;DHT22;4587;51.434;6.788;2023-05-21T14:06:29;24.70;99.90
9103;DHT22;4587;51.434;6.788;2023-05-21T14:08:56;24.70;99.90
9103;DHT22;4587;51.434;6.788;2023-05-21T14:11:22;24.80;99.90
9103;DHT22;4587;51.434;6.788;2023-05-21T14:13:47;24.90;99.90
9103;DHT22;4587;51.434;6.788;2023-05-21T14:16:13;24.80;99.90
9103;DHT22;4587;51.434;6.788;2023-05-21T14:18:39;24.90;99.90
9103;DHT22;4587;51.434;6.788;2023-05-21T14:21:04;24.90;99.90
9103;DHT22;4587;51.434;6.788;2023-05-21T14:23:30;24.80;99.90
9103;DHT22;4587;51.434;6.788;2023-05-21T14:25:55;24.80;99.90
9103;DHT22;4587;51.434;6.788;2023-05-21T14:28:21;24.80;99.90
9103;DHT22;4587;51.434;6.788;2023-05-21T14:30:47;24.70;99.90
9103;DHT22;4587;51.434;6.788;2023-05-21T14:33:12;24.70;99.90
9103;DHT22;4587;51.434;6.788;2023-05-21T14:35:38;24.70;99.90
9103;DHT22;4587;51.434;6.788;2023-05-21T14:38:05;24.80;99.90
9103;DHT22;4587;51.434;6.788;2023-05-21T14:40:31;24.90;99.90
9103;DHT22;4587;51.434;6.788;2023-05-21T14:42:56;25.00;99.90
9103;DHT22;4587;51.434;6.788;2023-05-21T14:45:22;25.00;99.90
9103;DHT22;4587;51.434;6.788;2023-05-21T14:47:47;25.10;99.90
9103;DHT22;4587;51.434;6.788;2023-05-21T14:50:14;25.00;99.90
9103;DHT22;4587;51.434;6.788;2023-05-21T14:52:39;25.00;99.90
9103;DHT22;4587;51.434;6.788;2023-05-21T14:55:07;25.00;99.90
9103;DHT22;4587;51.434;6.788;2023-05-21T14:57:33;25.10;99.90
9103;DHT22;4587;51.434;6.788;2023-05-21T14:59:59;25.10;99.90
9103;DHT22;4587;51.434;6.788;2023-05-21T15:02:25;25.40;99.90
9103;DHT22;4587;51.434;6.788;2023-05-21T15:04:50;25.20;99.90
9103;DHT22;4587;51.434;6.788;2023-05-21T15:07:16;25.10;99.90
9103;DHT22;4587;51.434;6.788;2023-05-21T15:09:42;25.10;99.90
9103;DHT22;4587;51.434;6.788;2023-05-21T15:12:07;25.10;99.90
9103;DHT22;4587;51.434;6.788;2023-05-21T15:14:33;25.00;99.90
9103;DHT22;4587;51.434;6.788;2023-05-21T15:16:58;25.10;99.90
9103;DHT22;4587;51.434;6.788;2023-05-21T15:19:24;25.00;99.90
9103;DHT22;4587;51.434;6.788;2023-05-21T15:21:50;25.00;99.90
9103;DHT22;4587;51.434;6.788;2023-05-21T15:24:16;25.10;99.90
9103;DHT22;4587;51.434;6.788;2023-05-21T15:26:42;25.10;99.90
9103;DHT22;4587;51.434;6.788;2023-05-21T15:29:08;25.10;99.90
9103;DHT22;4587;51.434;6.788;2023-05-21T15:31:33;25.10;99.90
9103;DHT22;4587;51.434;6.788;2023-05-21T15:33:59;25.40;99.90
9103;DHT22;4587;51.434;6.788;2023-05-21T15:36:24;25.10;99.90
9103;DHT22;4587;51.434;6.788;2023-05-21T15:38:51;25.10;99.90
9103;DHT22;4587;51.434;6.788;2023-05-21T15:41:17;25.00;99.90
9103;DHT22;4587;51.434;6.788;2023-05-21T15:43:44;25.00;99.90
9103;DHT22;4587;51.434;6.788;2023-05-21T15:46:09;25.40;99.90
9103;DHT22;4587;51.434;6.788;2023-05-21T15:48:36;25.00;99.90
9103;DHT22;4587;51.434;6.788;2023-05-21T15:51:02;25.00;99.90
9103;DHT22;4587;51.434;6.788;2023-05-21T15:53:28;24.90;99.90
9103;DHT22;4587;51.434;6.788;2023-05-21T15:55:54;25.00;99.90
9103;DHT22;4587;51.434;6.788;2023-05-21T15:58:20;24.90;99.90
9103;DHT22;4587;51.434;6.788;2023-05-21T16:00:45;24.90;99.90
9103;DHT22;4587;51.434;6.788;2023-05-21T16:03:11;24.80;99.90
9103;DHT22;4587;51.434;6.788;2023-05-21T16:05:36;24.70;99.90
9103;DHT22;4587;51.434;6.788;2023-05-21T16:08:02;24.70;99.90
9103;DHT22;4587;51.434;6.788;2023-05-21T16:10:28;24.90;99.90
9103;DHT22;4587;51.434;6.788;2023-05-21T16:12:53;24.40;99.90
9103;DHT22;4587;51.434;6.788;2023-05-21T16:15:19;24.30;99.90